Saranac, Louisiana
Current Conditions -  °F | °C
As of 7:35 PM on Friday 24 Oct 2014 (Local Time) from KHEZ Reporting Station
Clear Clear  
Wind Chill: 57°   Ceiling: Unl
Heat Index: 57°   Visibility: 10mi
Dew Point: 48°   Wind: 0mph
Humidity: 72%   Direction: NA
Pressure: 30.12"   Gusts: NA
Location:  31.9504°N, 91.3766°W
Report Text: KHEZ 250035Z AUTO 00000KT 10SM CLR 14/09 A3012 RMK AO1
Loading
Personal Weather Stations






























Interactive Weather Map
Tropical Storm Tracking
New forecast layout! Learn more

10-Day Weather Forecast

Advertisements
Track Severe Weather on mobile